CPX107 Details

Departure: Ted Stevens Anchorage International Airport (PANC)
Arrival: Miami International Airport (KMIA) at N/A
Route: JOH J501 YAK NCA10 YQU J515 YEG SEFFY VLN J483 MOT ABR J45 FSD J45 DSM Q19 LAJUG Q19 BNA BULZI NICKI Q81 ENDEW JUULI SSCOT5
Notes:


Current Weather Information
PANC 171653Z 35018G27KT 10SM FEW200 16/03 A3017 RMK AO2 PK WND 35027/1653 SLP218 T01560033
KMIA 171653Z 14008KT 110V190 10SM SCT035 BKN050 BKN120 BKN250 33/23 A3009 RMK AO2 LTG DSNT NW SLP191 CB DSNT NW T03330228